Terminal Aerodrome Forecast
Issued by NWS Buffalo, NY

Home | Current Version | Previous Version | Text Only | Print | Product List | Glossary On
Versions: 1 2 3 4 5 6 7 8 9 10 11 12 13 14 15 16 17 18 19 20 21 22 23 24 25 26 27 28
000
FTUS41 KBUF 251500 AAA
TAFART
TAF AMD
KART 251505Z 2515/2612 21012G18KT P6SM SCT045 BKN060
     FM251900 22014G24KT 6SM -SHRA SCT015 BKN035
     FM252200 25014G25KT P6SM SCT040 BKN100
     FM260300 26014KT P6SM BKN035
     FM260600 27014KT 6SM -SHRA BKN025=

USA.gov is the U.S. government's official web portal to all federal, state and local government web resources and services.